sensor_id;sensor_type;location;lat;lon;timestamp;P1;durP1;ratioP1;P2;durP2;ratioP2
10987;SDS011;5547;42.672;23.230;2024-03-25T00:01:15;10.37;;;4.10;;
10987;SDS011;5547;42.672;23.230;2024-03-25T00:04:15;5.90;;;2.20;;
10987;SDS011;5547;42.672;23.230;2024-03-25T00:07:15;3.00;;;1.00;;
10987;SDS011;5547;42.672;23.230;2024-03-25T00:10:16;9.50;;;3.17;;
10987;SDS011;5547;42.672;23.230;2024-03-25T00:13:16;16.77;;;6.53;;
10987;SDS011;5547;42.672;23.230;2024-03-25T00:16:16;8.00;;;2.87;;
10987;SDS011;5547;42.672;23.230;2024-03-25T00:19:16;11.80;;;4.97;;
10987;SDS011;5547;42.672;23.230;2024-03-25T00:22:17;13.00;;;6.27;;
10987;SDS011;5547;42.672;23.230;2024-03-25T00:25:17;12.00;;;5.88;;
10987;SDS011;5547;42.672;23.230;2024-03-25T00:28:18;7.10;;;3.60;;
10987;SDS011;5547;42.672;23.230;2024-03-25T00:31:19;4.72;;;2.40;;
10987;SDS011;5547;42.672;23.230;2024-03-25T00:34:19;1.85;;;0.85;;
10987;SDS011;5547;42.672;23.230;2024-03-25T00:37:20;2.97;;;1.50;;
10987;SDS011;5547;42.672;23.230;2024-03-25T00:40:20;1.03;;;0.50;;
10987;SDS011;5547;42.672;23.230;2024-03-25T00:43:20;4.33;;;2.60;;
10987;SDS011;5547;42.672;23.230;2024-03-25T00:46:20;5.07;;;3.00;;
10987;SDS011;5547;42.672;23.230;2024-03-25T00:49:21;9.88;;;4.10;;
10987;SDS011;5547;42.672;23.230;2024-03-25T00:52:24;5.07;;;2.75;;
10987;SDS011;5547;42.672;23.230;2024-03-25T00:55:25;8.00;;;3.40;;
10987;SDS011;5547;42.672;23.230;2024-03-25T00:58:25;11.70;;;5.47;;
10987;SDS011;5547;42.672;23.230;2024-03-25T01:01:25;4.27;;;2.03;;
10987;SDS011;5547;42.672;23.230;2024-03-25T01:04:25;3.37;;;1.83;;
10987;SDS011;5547;42.672;23.230;2024-03-25T01:07:26;0.40;;;0.40;;
10987;SDS011;5547;42.672;23.230;2024-03-25T01:10:26;0.40;;;0.30;;
10987;SDS011;5547;42.672;23.230;2024-03-25T01:13:26;1.20;;;0.90;;
10987;SDS011;5547;42.672;23.230;2024-03-25T01:16:26;1.37;;;0.83;;
10987;SDS011;5547;42.672;23.230;2024-03-25T01:19:27;1.23;;;0.70;;
10987;SDS011;5547;42.672;23.230;2024-03-25T01:22:27;1.10;;;0.40;;
10987;SDS011;5547;42.672;23.230;2024-03-25T01:25:28;3.37;;;1.97;;
10987;SDS011;5547;42.672;23.230;2024-03-25T01:28:28;3.30;;;1.90;;
10987;SDS011;5547;42.672;23.230;2024-03-25T01:31:28;5.50;;;3.37;;
10987;SDS011;5547;42.672;23.230;2024-03-25T01:34:28;7.27;;;4.53;;
10987;SDS011;5547;42.672;23.230;2024-03-25T01:37:29;1.70;;;1.00;;
10987;SDS011;5547;42.672;23.230;2024-03-25T01:40:29;1.50;;;0.70;;
10987;SDS011;5547;42.672;23.230;2024-03-25T01:43:29;3.93;;;2.43;;
10987;SDS011;5547;42.672;23.230;2024-03-25T01:46:29;1.40;;;0.90;;
10987;SDS011;5547;42.672;23.230;2024-03-25T01:49:30;3.07;;;1.80;;
10987;SDS011;5547;42.672;23.230;2024-03-25T01:52:30;3.23;;;2.00;;
10987;SDS011;5547;42.672;23.230;2024-03-25T01:55:30;0.57;;;0.50;;
10987;SDS011;5547;42.672;23.230;2024-03-25T01:58:32;0.60;;;0.57;;
10987;SDS011;5547;42.672;23.230;2024-03-25T02:01:32;0.57;;;0.43;;
10987;SDS011;5547;42.672;23.230;2024-03-25T02:04:33;0.40;;;0.40;;
10987;SDS011;5547;42.672;23.230;2024-03-25T02:07:35;0.70;;;0.50;;
10987;SDS011;5547;42.672;23.230;2024-03-25T02:10:37;0.80;;;0.50;;
10987;SDS011;5547;42.672;23.230;2024-03-25T02:13:37;1.00;;;0.60;;
10987;SDS011;5547;42.672;23.230;2024-03-25T02:16:38;0.50;;;0.47;;
10987;SDS011;5547;42.672;23.230;2024-03-25T02:19:38;1.33;;;0.50;;
10987;SDS011;5547;42.672;23.230;2024-03-25T02:22:39;0.60;;;0.60;;
10987;SDS011;5547;42.672;23.230;2024-03-25T02:25:40;0.60;;;0.60;;
10987;SDS011;5547;42.672;23.230;2024-03-25T02:28:41;0.77;;;0.57;;
10987;SDS011;5547;42.672;23.230;2024-03-25T02:31:42;3.27;;;2.00;;
10987;SDS011;5547;42.672;23.230;2024-03-25T02:34:46;0.77;;;0.60;;
10987;SDS011;5547;42.672;23.230;2024-03-25T02:37:47;1.73;;;0.80;;
10987;SDS011;5547;42.672;23.230;2024-03-25T02:40:48;0.70;;;0.70;;
10987;SDS011;5547;42.672;23.230;2024-03-25T02:43:49;0.82;;;0.70;;
10987;SDS011;5547;42.672;23.230;2024-03-25T02:46:49;0.93;;;0.80;;
10987;SDS011;5547;42.672;23.230;2024-03-25T02:49:49;0.73;;;0.60;;
10987;SDS011;5547;42.672;23.230;2024-03-25T02:52:50;0.60;;;0.60;;
10987;SDS011;5547;42.672;23.230;2024-03-25T02:55:50;0.50;;;0.50;;
10987;SDS011;5547;42.672;23.230;2024-03-25T02:58:50;1.40;;;1.30;;
10987;SDS011;5547;42.672;23.230;2024-03-25T03:01:50;0.97;;;0.97;;
10987;SDS011;5547;42.672;23.230;2024-03-25T03:04:51;22.37;;;2.40;;
10987;SDS011;5547;42.672;23.230;2024-03-25T03:07:51;7.13;;;1.70;;
10987;SDS011;5547;42.672;23.230;2024-03-25T03:10:51;3.57;;;1.83;;
10987;SDS011;5547;42.672;23.230;2024-03-25T03:13:51;1.37;;;0.87;;
10987;SDS011;5547;42.672;23.230;2024-03-25T03:16:52;1.87;;;1.13;;
10987;SDS011;5547;42.672;23.230;2024-03-25T03:19:57;3.65;;;1.77;;
10987;SDS011;5547;42.672;23.230;2024-03-25T03:22:58;2.10;;;1.30;;
10987;SDS011;5547;42.672;23.230;2024-03-25T03:25:58;1.93;;;1.33;;
10987;SDS011;5547;42.672;23.230;2024-03-25T03:28:59;1.93;;;1.50;;
10987;SDS011;5547;42.672;23.230;2024-03-25T03:31:59;2.27;;;1.67;;
10987;SDS011;5547;42.672;23.230;2024-03-25T03:35:00;2.27;;;1.60;;
10987;SDS011;5547;42.672;23.230;2024-03-25T03:38:00;2.10;;;1.80;;
10987;SDS011;5547;42.672;23.230;2024-03-25T03:41:01;3.77;;;2.37;;
10987;SDS011;5547;42.672;23.230;2024-03-25T03:44:02;3.85;;;2.67;;
10987;SDS011;5547;42.672;23.230;2024-03-25T03:47:02;3.67;;;2.80;;
10987;SDS011;5547;42.672;23.230;2024-03-25T03:50:02;4.90;;;3.43;;
10987;SDS011;5547;42.672;23.230;2024-03-25T03:53:02;6.87;;;4.27;;
10987;SDS011;5547;42.672;23.230;2024-03-25T03:56:04;5.90;;;3.83;;
10987;SDS011;5547;42.672;23.230;2024-03-25T03:59:08;5.50;;;3.83;;
10987;SDS011;5547;42.672;23.230;2024-03-25T04:02:08;4.45;;;2.83;;
10987;SDS011;5547;42.672;23.230;2024-03-25T04:05:09;5.03;;;3.00;;
10987;SDS011;5547;42.672;23.230;2024-03-25T04:08:09;5.37;;;3.50;;
10987;SDS011;5547;42.672;23.230;2024-03-25T04:11:09;5.00;;;4.10;;
10987;SDS011;5547;42.672;23.230;2024-03-25T04:14:10;6.80;;;4.50;;
10987;SDS011;5547;42.672;23.230;2024-03-25T04:17:10;5.70;;;4.33;;
10987;SDS011;5547;42.672;23.230;2024-03-25T04:20:12;6.25;;;4.20;;
10987;SDS011;5547;42.672;23.230;2024-03-25T04:23:12;6.03;;;4.20;;
10987;SDS011;5547;42.672;23.230;2024-03-25T04:26:12;5.70;;;4.20;;
10987;SDS011;5547;42.672;23.230;2024-03-25T04:29:15;7.65;;;4.68;;
10987;SDS011;5547;42.672;23.230;2024-03-25T04:32:16;8.05;;;4.90;;
10987;SDS011;5547;42.672;23.230;2024-03-25T04:35:16;8.87;;;5.70;;
10987;SDS011;5547;42.672;23.230;2024-03-25T04:38:16;9.90;;;6.10;;
10987;SDS011;5547;42.672;23.230;2024-03-25T04:41:17;8.83;;;5.80;;
10987;SDS011;5547;42.672;23.230;2024-03-25T04:44:17;8.77;;;5.97;;
10987;SDS011;5547;42.672;23.230;2024-03-25T04:47:18;9.52;;;6.00;;
10987;SDS011;5547;42.672;23.230;2024-03-25T04:50:18;19.00;;;6.20;;
10987;SDS011;5547;42.672;23.230;2024-03-25T04:53:18;10.33;;;6.37;;
10987;SDS011;5547;42.672;23.230;2024-03-25T04:56:19;10.07;;;6.53;;
10987;SDS011;5547;42.672;23.230;2024-03-25T04:59:20;8.48;;;5.80;;
10987;SDS011;5547;42.672;23.230;2024-03-25T05:02:20;8.57;;;5.97;;
10987;SDS011;5547;42.672;23.230;2024-03-25T05:05:20;8.87;;;6.53;;
10987;SDS011;5547;42.672;23.230;2024-03-25T05:08:20;8.27;;;6.30;;
10987;SDS011;5547;42.672;23.230;2024-03-25T05:11:21;9.17;;;5.87;;
10987;SDS011;5547;42.672;23.230;2024-03-25T05:14:21;8.87;;;6.33;;
10987;SDS011;5547;42.672;23.230;2024-03-25T05:17:21;8.70;;;6.30;;
10987;SDS011;5547;42.672;23.230;2024-03-25T05:20:21;9.40;;;6.60;;
10987;SDS011;5547;42.672;23.230;2024-03-25T05:23:22;10.67;;;7.50;;
10987;SDS011;5547;42.672;23.230;2024-03-25T05:26:22;11.18;;;7.63;;
10987;SDS011;5547;42.672;23.230;2024-03-25T05:29:22;13.67;;;8.43;;
10987;SDS011;5547;42.672;23.230;2024-03-25T05:32:23;10.87;;;7.60;;
10987;SDS011;5547;42.672;23.230;2024-03-25T05:35:23;11.50;;;7.47;;
10987;SDS011;5547;42.672;23.230;2024-03-25T05:38:23;12.87;;;8.87;;
10987;SDS011;5547;42.672;23.230;2024-03-25T05:41:23;10.60;;;7.80;;
10987;SDS011;5547;42.672;23.230;2024-03-25T05:44:24;9.47;;;7.13;;
10987;SDS011;5547;42.672;23.230;2024-03-25T05:47:24;13.07;;;8.50;;
10987;SDS011;5547;42.672;23.230;2024-03-25T05:50:24;10.07;;;7.40;;
10987;SDS011;5547;42.672;23.230;2024-03-25T05:53:25;12.00;;;7.60;;
10987;SDS011;5547;42.672;23.230;2024-03-25T05:56:26;10.10;;;6.97;;
10987;SDS011;5547;42.672;23.230;2024-03-25T05:59:30;10.60;;;7.03;;
10987;SDS011;5547;42.672;23.230;2024-03-25T06:02:30;9.70;;;7.10;;
10987;SDS011;5547;42.672;23.230;2024-03-25T06:05:31;10.00;;;7.53;;
10987;SDS011;5547;42.672;23.230;2024-03-25T06:08:31;12.47;;;8.33;;
10987;SDS011;5547;42.672;23.230;2024-03-25T06:11:31;9.83;;;7.67;;
10987;SDS011;5547;42.672;23.230;2024-03-25T06:14:31;11.47;;;7.20;;
10987;SDS011;5547;42.672;23.230;2024-03-25T06:17:32;10.37;;;7.43;;
10987;SDS011;5547;42.672;23.230;2024-03-25T06:20:32;11.23;;;8.10;;
10987;SDS011;5547;42.672;23.230;2024-03-25T06:23:32;11.90;;;9.03;;
10987;SDS011;5547;42.672;23.230;2024-03-25T06:26:32;9.60;;;8.02;;
10987;SDS011;5547;42.672;23.230;2024-03-25T06:29:32;9.40;;;7.67;;
10987;SDS011;5547;42.672;23.230;2024-03-25T06:32:35;10.23;;;7.57;;
10987;SDS011;5547;42.672;23.230;2024-03-25T06:35:54;9.90;;;7.87;;
10987;SDS011;5547;42.672;23.230;2024-03-25T06:38:54;10.17;;;8.20;;
10987;SDS011;5547;42.672;23.230;2024-03-25T06:41:54;9.70;;;7.67;;
10987;SDS011;5547;42.672;23.230;2024-03-25T06:44:54;9.03;;;6.97;;
10987;SDS011;5547;42.672;23.230;2024-03-25T06:47:55;8.83;;;7.03;;
10987;SDS011;5547;42.672;23.230;2024-03-25T06:50:56;9.45;;;7.10;;
10987;SDS011;5547;42.672;23.230;2024-03-25T06:53:56;10.00;;;7.77;;
10987;SDS011;5547;42.672;23.230;2024-03-25T06:56:56;10.40;;;7.83;;
10987;SDS011;5547;42.672;23.230;2024-03-25T06:59:56;10.70;;;8.40;;
10987;SDS011;5547;42.672;23.230;2024-03-25T07:02:57;11.13;;;8.18;;
10987;SDS011;5547;42.672;23.230;2024-03-25T07:05:58;11.77;;;8.00;;
10987;SDS011;5547;42.672;23.230;2024-03-25T07:09:00;10.68;;;8.02;;
10987;SDS011;5547;42.672;23.230;2024-03-25T07:12:01;9.43;;;7.13;;
10987;SDS011;5547;42.672;23.230;2024-03-25T07:15:01;10.20;;;8.27;;
10987;SDS011;5547;42.672;23.230;2024-03-25T07:18:04;9.47;;;7.40;;
10987;SDS011;5547;42.672;23.230;2024-03-25T07:21:04;9.43;;;7.13;;
10987;SDS011;5547;42.672;23.230;2024-03-25T07:24:05;9.73;;;7.07;;
10987;SDS011;5547;42.672;23.230;2024-03-25T07:27:05;9.83;;;8.00;;
10987;SDS011;5547;42.672;23.230;2024-03-25T07:30:06;9.60;;;7.70;;
10987;SDS011;5547;42.672;23.230;2024-03-25T07:33:07;8.97;;;6.80;;
10987;SDS011;5547;42.672;23.230;2024-03-25T07:36:07;8.07;;;6.90;;
10987;SDS011;5547;42.672;23.230;2024-03-25T07:39:07;8.67;;;6.93;;
10987;SDS011;5547;42.672;23.230;2024-03-25T07:42:10;7.70;;;6.65;;
10987;SDS011;5547;42.672;23.230;2024-03-25T07:45:11;7.80;;;6.87;;
10987;SDS011;5547;42.672;23.230;2024-03-25T07:48:11;6.87;;;6.17;;
10987;SDS011;5547;42.672;23.230;2024-03-25T07:51:11;7.63;;;6.57;;
10987;SDS011;5547;42.672;23.230;2024-03-25T07:54:11;7.17;;;6.30;;
10987;SDS011;5547;42.672;23.230;2024-03-25T07:57:14;6.63;;;5.90;;
10987;SDS011;5547;42.672;23.230;2024-03-25T08:00:14;6.97;;;6.17;;
10987;SDS011;5547;42.672;23.230;2024-03-25T08:03:14;7.60;;;6.20;;
10987;SDS011;5547;42.672;23.230;2024-03-25T08:06:15;8.13;;;6.23;;
10987;SDS011;5547;42.672;23.230;2024-03-25T08:09:15;7.80;;;6.17;;
10987;SDS011;5547;42.672;23.230;2024-03-25T08:12:17;7.03;;;5.80;;
10987;SDS011;5547;42.672;23.230;2024-03-25T08:15:17;6.50;;;5.40;;
10987;SDS011;5547;42.672;23.230;2024-03-25T08:18:17;6.40;;;5.60;;
10987;SDS011;5547;42.672;23.230;2024-03-25T08:21:18;7.20;;;6.10;;
10987;SDS011;5547;42.672;23.230;2024-03-25T08:24:18;6.13;;;5.53;;
10987;SDS011;5547;42.672;23.230;2024-03-25T08:27:18;7.97;;;6.00;;
10987;SDS011;5547;42.672;23.230;2024-03-25T08:30:18;6.85;;;6.10;;
10987;SDS011;5547;42.672;23.230;2024-03-25T08:33:19;7.00;;;5.90;;
10987;SDS011;5547;42.672;23.230;2024-03-25T08:36:19;6.83;;;5.90;;
10987;SDS011;5547;42.672;23.230;2024-03-25T08:39:19;7.10;;;6.27;;
10987;SDS011;5547;42.672;23.230;2024-03-25T08:42:20;7.03;;;5.97;;
10987;SDS011;5547;42.672;23.230;2024-03-25T08:45:21;6.88;;;6.18;;
10987;SDS011;5547;42.672;23.230;2024-03-25T08:48:21;7.33;;;5.97;;
10987;SDS011;5547;42.672;23.230;2024-03-25T08:51:21;7.93;;;6.20;;
10987;SDS011;5547;42.672;23.230;2024-03-25T08:54:22;7.17;;;6.30;;
10987;SDS011;5547;42.672;23.230;2024-03-25T08:57:22;7.23;;;5.77;;
10987;SDS011;5547;42.672;23.230;2024-03-25T09:00:22;9.13;;;6.17;;
10987;SDS011;5547;42.672;23.230;2024-03-25T09:03:23;7.25;;;6.20;;
10987;SDS011;5547;42.672;23.230;2024-03-25T09:06:23;6.43;;;5.27;;
10987;SDS011;5547;42.672;23.230;2024-03-25T09:09:43;6.80;;;5.80;;
10987;SDS011;5547;42.672;23.230;2024-03-25T09:13:02;8.20;;;6.47;;
10987;SDS011;5547;42.672;23.230;2024-03-25T09:16:03;6.68;;;5.97;;
10987;SDS011;5547;42.672;23.230;2024-03-25T09:19:04;6.75;;;6.10;;
10987;SDS011;5547;42.672;23.230;2024-03-25T09:22:04;6.87;;;5.97;;
10987;SDS011;5547;42.672;23.230;2024-03-25T09:25:05;7.03;;;6.33;;
10987;SDS011;5547;42.672;23.230;2024-03-25T09:28:05;6.85;;;5.90;;
10987;SDS011;5547;42.672;23.230;2024-03-25T09:31:06;6.80;;;5.47;;
10987;SDS011;5547;42.672;23.230;2024-03-25T09:34:06;7.30;;;6.25;;
10987;SDS011;5547;42.672;23.230;2024-03-25T09:37:07;6.87;;;6.10;;
10987;SDS011;5547;42.672;23.230;2024-03-25T09:40:07;6.57;;;5.53;;
10987;SDS011;5547;42.672;23.230;2024-03-25T09:43:16;6.57;;;5.47;;
10987;SDS011;5547;42.672;23.230;2024-03-25T09:46:21;7.20;;;5.82;;
10987;SDS011;5547;42.672;23.230;2024-03-25T09:49:22;6.57;;;5.40;;
10987;SDS011;5547;42.672;23.230;2024-03-25T09:52:23;6.23;;;5.17;;
10987;SDS011;5547;42.672;23.230;2024-03-25T09:55:23;5.45;;;4.32;;
10987;SDS011;5547;42.672;23.230;2024-03-25T09:58:27;5.53;;;4.80;;
10987;SDS011;5547;42.672;23.230;2024-03-25T10:01:28;7.07;;;5.95;;
10987;SDS011;5547;42.672;23.230;2024-03-25T10:04:28;5.30;;;4.80;;
10987;SDS011;5547;42.672;23.230;2024-03-25T10:07:29;4.85;;;4.32;;
10987;SDS011;5547;42.672;23.230;2024-03-25T10:10:30;5.80;;;4.60;;
10987;SDS011;5547;42.672;23.230;2024-03-25T10:13:30;6.43;;;5.33;;
10987;SDS011;5547;42.672;23.230;2024-03-25T10:16:31;4.72;;;4.22;;
10987;SDS011;5547;42.672;23.230;2024-03-25T10:19:31;5.23;;;4.43;;
10987;SDS011;5547;42.672;23.230;2024-03-25T10:22:40;4.82;;;4.13;;
10987;SDS011;5547;42.672;23.230;2024-03-25T10:25:40;4.30;;;3.90;;
10987;SDS011;5547;42.672;23.230;2024-03-25T10:28:40;3.37;;;3.07;;
10987;SDS011;5547;42.672;23.230;2024-03-25T10:31:41;4.23;;;3.00;;
10987;SDS011;5547;42.672;23.230;2024-03-25T10:34:41;4.53;;;3.43;;
10987;SDS011;5547;42.672;23.230;2024-03-25T10:37:41;4.10;;;3.33;;
10987;SDS011;5547;42.672;23.230;2024-03-25T10:40:42;4.35;;;3.63;;
10987;SDS011;5547;42.672;23.230;2024-03-25T10:43:46;3.78;;;3.42;;
10987;SDS011;5547;42.672;23.230;2024-03-25T10:46:47;4.18;;;3.78;;
10987;SDS011;5547;42.672;23.230;2024-03-25T10:49:49;4.22;;;3.83;;
10987;SDS011;5547;42.672;23.230;2024-03-25T10:52:49;3.92;;;3.53;;
10987;SDS011;5547;42.672;23.230;2024-03-25T10:55:53;3.88;;;3.58;;
10987;SDS011;5547;42.672;23.230;2024-03-25T10:58:53;4.30;;;3.90;;
10987;SDS011;5547;42.672;23.230;2024-03-25T11:01:54;4.15;;;3.40;;
10987;SDS011;5547;42.672;23.230;2024-03-25T11:04:55;4.37;;;3.70;;
10987;SDS011;5547;42.672;23.230;2024-03-25T11:07:57;4.10;;;3.65;;
10987;SDS011;5547;42.672;23.230;2024-03-25T11:10:59;4.78;;;3.90;;
10987;SDS011;5547;42.672;23.230;2024-03-25T11:14:02;3.85;;;3.50;;
10987;SDS011;5547;42.672;23.230;2024-03-25T11:17:03;3.90;;;3.45;;
10987;SDS011;5547;42.672;23.230;2024-03-25T11:20:15;3.63;;;3.20;;
10987;SDS011;5547;42.672;23.230;2024-03-25T11:23:16;4.30;;;3.50;;
10987;SDS011;5547;42.672;23.230;2024-03-25T11:26:21;5.25;;;4.50;;
10987;SDS011;5547;42.672;23.230;2024-03-25T11:29:22;5.15;;;4.65;;
10987;SDS011;5547;42.672;23.230;2024-03-25T11:32:22;4.77;;;4.30;;
10987;SDS011;5547;42.672;23.230;2024-03-25T11:35:24;3.80;;;3.35;;
10987;SDS011;5547;42.672;23.230;2024-03-25T11:38:24;4.60;;;4.03;;
10987;SDS011;5547;42.672;23.230;2024-03-25T11:41:26;5.00;;;4.50;;
10987;SDS011;5547;42.672;23.230;2024-03-25T11:44:26;5.45;;;4.40;;
10987;SDS011;5547;42.672;23.230;2024-03-25T11:47:28;4.50;;;3.77;;
10987;SDS011;5547;42.672;23.230;2024-03-25T11:50:28;7.70;;;5.23;;
10987;SDS011;5547;42.672;23.230;2024-03-25T11:53:29;9.97;;;6.70;;
10987;SDS011;5547;42.672;23.230;2024-03-25T11:56:32;7.70;;;5.60;;
10987;SDS011;5547;42.672;23.230;2024-03-25T11:59:33;4.50;;;4.10;;
10987;SDS011;5547;42.672;23.230;2024-03-25T12:02:33;4.20;;;3.57;;
10987;SDS011;5547;42.672;23.230;2024-03-25T12:05:33;3.27;;;2.93;;
10987;SDS011;5547;42.672;23.230;2024-03-25T12:08:34;3.17;;;2.53;;
10987;SDS011;5547;42.672;23.230;2024-03-25T12:11:44;3.05;;;2.35;;
10987;SDS011;5547;42.672;23.230;2024-03-25T12:14:45;2.53;;;2.33;;
10987;SDS011;5547;42.672;23.230;2024-03-25T12:17:45;3.20;;;2.90;;
10987;SDS011;5547;42.672;23.230;2024-03-25T12:20:47;3.30;;;2.80;;
10987;SDS011;5547;42.672;23.230;2024-03-25T12:23:48;3.20;;;2.90;;
10987;SDS011;5547;42.672;23.230;2024-03-25T12:26:48;3.17;;;2.87;;
10987;SDS011;5547;42.672;23.230;2024-03-25T12:29:57;2.83;;;2.53;;
10987;SDS011;5547;42.672;23.230;2024-03-25T12:32:57;2.97;;;2.70;;
10987;SDS011;5547;42.672;23.230;2024-03-25T12:35:57;2.63;;;2.43;;
10987;SDS011;5547;42.672;23.230;2024-03-25T12:38:57;3.03;;;2.73;;
10987;SDS011;5547;42.672;23.230;2024-03-25T12:41:58;3.25;;;2.70;;
10987;SDS011;5547;42.672;23.230;2024-03-25T12:44:58;3.47;;;2.87;;
10987;SDS011;5547;42.672;23.230;2024-03-25T12:47:58;3.67;;;2.90;;
10987;SDS011;5547;42.672;23.230;2024-03-25T12:50:58;3.30;;;3.00;;
10987;SDS011;5547;42.672;23.230;2024-03-25T12:53:59;3.40;;;2.70;;
10987;SDS011;5547;42.672;23.230;2024-03-25T12:56:59;4.10;;;3.17;;
10987;SDS011;5547;42.672;23.230;2024-03-25T12:59:59;3.30;;;3.00;;
10987;SDS011;5547;42.672;23.230;2024-03-25T13:03:00;3.20;;;2.60;;
10987;SDS011;5547;42.672;23.230;2024-03-25T13:06:02;8.95;;;5.88;;
10987;SDS011;5547;42.672;23.230;2024-03-25T13:09:02;3.90;;;3.50;;
10987;SDS011;5547;42.672;23.230;2024-03-25T13:12:03;3.33;;;3.00;;
10987;SDS011;5547;42.672;23.230;2024-03-25T13:15:04;4.32;;;3.88;;
10987;SDS011;5547;42.672;23.230;2024-03-25T13:18:04;3.90;;;3.03;;
10987;SDS011;5547;42.672;23.230;2024-03-25T13:21:04;2.90;;;2.60;;
10987;SDS011;5547;42.672;23.230;2024-03-25T13:24:05;2.80;;;2.50;;
10987;SDS011;5547;42.672;23.230;2024-03-25T13:27:05;3.00;;;2.70;;
10987;SDS011;5547;42.672;23.230;2024-03-25T13:30:06;2.67;;;2.40;;
10987;SDS011;5547;42.672;23.230;2024-03-25T13:33:06;2.90;;;2.50;;
10987;SDS011;5547;42.672;23.230;2024-03-25T13:36:06;2.87;;;2.37;;
10987;SDS011;5547;42.672;23.230;2024-03-25T13:39:06;2.73;;;2.53;;
10987;SDS011;5547;42.672;23.230;2024-03-25T13:42:08;2.42;;;2.22;;
10987;SDS011;5547;42.672;23.230;2024-03-25T13:45:09;3.20;;;2.47;;
10987;SDS011;5547;42.672;23.230;2024-03-25T13:48:09;2.40;;;2.03;;
10987;SDS011;5547;42.672;23.230;2024-03-25T13:51:09;2.10;;;1.90;;
10987;SDS011;5547;42.672;23.230;2024-03-25T13:54:10;2.30;;;2.00;;
10987;SDS011;5547;42.672;23.230;2024-03-25T13:57:10;3.93;;;1.60;;
10987;SDS011;5547;42.672;23.230;2024-03-25T14:00:10;2.73;;;1.20;;
10987;SDS011;5547;42.672;23.230;2024-03-25T14:03:11;2.50;;;1.10;;
10987;SDS011;5547;42.672;23.230;2024-03-25T14:06:11;2.43;;;1.30;;
10987;SDS011;5547;42.672;23.230;2024-03-25T14:09:22;1.33;;;1.13;;
10987;SDS011;5547;42.672;23.230;2024-03-25T14:12:23;1.73;;;1.30;;
10987;SDS011;5547;42.672;23.230;2024-03-25T14:15:23;2.55;;;1.38;;
10987;SDS011;5547;42.672;23.230;2024-03-25T14:18:24;1.80;;;1.23;;
10987;SDS011;5547;42.672;23.230;2024-03-25T14:21:24;1.13;;;1.00;;
10987;SDS011;5547;42.672;23.230;2024-03-25T14:24:24;1.60;;;1.20;;
10987;SDS011;5547;42.672;23.230;2024-03-25T14:27:24;1.97;;;1.40;;
10987;SDS011;5547;42.672;23.230;2024-03-25T14:30:25;2.13;;;1.20;;
10987;SDS011;5547;42.672;23.230;2024-03-25T14:33:25;3.35;;;1.50;;
10987;SDS011;5547;42.672;23.230;2024-03-25T14:36:26;2.50;;;1.30;;
10987;SDS011;5547;42.672;23.230;2024-03-25T14:39:26;1.70;;;1.43;;
10987;SDS011;5547;42.672;23.230;2024-03-25T14:42:26;1.50;;;1.40;;
10987;SDS011;5547;42.672;23.230;2024-03-25T14:45:26;4.07;;;2.90;;
10987;SDS011;5547;42.672;23.230;2024-03-25T14:48:29;2.25;;;1.85;;
10987;SDS011;5547;42.672;23.230;2024-03-25T14:51:29;1.57;;;1.33;;
10987;SDS011;5547;42.672;23.230;2024-03-25T14:54:32;1.80;;;1.43;;
10987;SDS011;5547;42.672;23.230;2024-03-25T14:57:33;1.60;;;1.50;;
10987;SDS011;5547;42.672;23.230;2024-03-25T15:00:33;2.83;;;2.10;;
10987;SDS011;5547;42.672;23.230;2024-03-25T15:03:34;2.63;;;2.27;;
10987;SDS011;5547;42.672;23.230;2024-03-25T15:06:35;2.72;;;2.53;;
10987;SDS011;5547;42.672;23.230;2024-03-25T15:09:36;2.33;;;2.13;;
10987;SDS011;5547;42.672;23.230;2024-03-25T15:12:36;2.53;;;2.20;;
10987;SDS011;5547;42.672;23.230;2024-03-25T15:15:38;2.57;;;2.17;;
10987;SDS011;5547;42.672;23.230;2024-03-25T15:18:39;2.55;;;2.33;;
10987;SDS011;5547;42.672;23.230;2024-03-25T15:21:39;3.07;;;2.30;;
10987;SDS011;5547;42.672;23.230;2024-03-25T15:24:40;2.45;;;2.25;;
10987;SDS011;5547;42.672;23.230;2024-03-25T15:27:40;2.30;;;2.10;;
10987;SDS011;5547;42.672;23.230;2024-03-25T15:30:40;3.53;;;2.80;;
10987;SDS011;5547;42.672;23.230;2024-03-25T15:33:41;4.30;;;2.77;;
10987;SDS011;5547;42.672;23.230;2024-03-25T15:36:41;3.70;;;2.80;;
10987;SDS011;5547;42.672;23.230;2024-03-25T15:39:41;2.30;;;2.10;;
10987;SDS011;5547;42.672;23.230;2024-03-25T15:42:42;2.70;;;2.28;;
10987;SDS011;5547;42.672;23.230;2024-03-25T15:45:42;2.97;;;2.23;;
10987;SDS011;5547;42.672;23.230;2024-03-25T15:48:42;3.47;;;2.77;;
10987;SDS011;5547;42.672;23.230;2024-03-25T15:51:43;3.33;;;3.03;;
10987;SDS011;5547;42.672;23.230;2024-03-25T15:54:43;3.30;;;3.00;;
10987;SDS011;5547;42.672;23.230;2024-03-25T15:57:43;2.95;;;2.60;;
10987;SDS011;5547;42.672;23.230;2024-03-25T16:00:43;3.40;;;2.60;;
10987;SDS011;5547;42.672;23.230;2024-03-25T16:03:44;2.90;;;2.60;;
10987;SDS011;5547;42.672;23.230;2024-03-25T16:06:44;2.67;;;2.13;;
10987;SDS011;5547;42.672;23.230;2024-03-25T16:09:44;2.63;;;2.07;;
10987;SDS011;5547;42.672;23.230;2024-03-25T16:12:45;2.65;;;2.08;;
10987;SDS011;5547;42.672;23.230;2024-03-25T16:15:45;3.13;;;2.30;;
10987;SDS011;5547;42.672;23.230;2024-03-25T16:18:45;2.50;;;1.90;;
10987;SDS011;5547;42.672;23.230;2024-03-25T16:21:46;2.50;;;1.80;;
10987;SDS011;5547;42.672;23.230;2024-03-25T16:24:49;2.73;;;1.83;;
10987;SDS011;5547;42.672;23.230;2024-03-25T16:27:50;2.95;;;2.53;;
10987;SDS011;5547;42.672;23.230;2024-03-25T16:30:50;3.87;;;2.10;;
10987;SDS011;5547;42.672;23.230;2024-03-25T16:33:50;3.23;;;2.10;;
10987;SDS011;5547;42.672;23.230;2024-03-25T16:36:51;2.67;;;2.00;;
10987;SDS011;5547;42.672;23.230;2024-03-25T16:39:52;4.13;;;2.80;;
10987;SDS011;5547;42.672;23.230;2024-03-25T16:42:52;5.67;;;2.70;;
10987;SDS011;5547;42.672;23.230;2024-03-25T16:45:52;4.00;;;2.80;;
10987;SDS011;5547;42.672;23.230;2024-03-25T16:48:52;2.27;;;2.07;;
10987;SDS011;5547;42.672;23.230;2024-03-25T16:51:53;2.50;;;2.30;;
10987;SDS011;5547;42.672;23.230;2024-03-25T16:54:53;2.37;;;2.17;;
10987;SDS011;5547;42.672;23.230;2024-03-25T16:57:53;2.57;;;2.37;;
10987;SDS011;5547;42.672;23.230;2024-03-25T17:00:53;2.30;;;2.10;;
10987;SDS011;5547;42.672;23.230;2024-03-25T17:03:54;2.53;;;2.10;;
10987;SDS011;5547;42.672;23.230;2024-03-25T17:06:54;2.33;;;2.13;;
10987;SDS011;5547;42.672;23.230;2024-03-25T17:09:54;2.40;;;2.20;;
10987;SDS011;5547;42.672;23.230;2024-03-25T17:12:54;3.10;;;1.90;;
10987;SDS011;5547;42.672;23.230;2024-03-25T17:15:55;2.17;;;1.93;;
10987;SDS011;5547;42.672;23.230;2024-03-25T17:18:55;2.63;;;2.30;;
10987;SDS011;5547;42.672;23.230;2024-03-25T17:21:55;2.20;;;2.00;;
10987;SDS011;5547;42.672;23.230;2024-03-25T17:24:55;3.20;;;2.33;;
10987;SDS011;5547;42.672;23.230;2024-03-25T17:27:56;2.97;;;1.90;;
10987;SDS011;5547;42.672;23.230;2024-03-25T17:30:56;2.80;;;2.33;;
10987;SDS011;5547;42.672;23.230;2024-03-25T17:33:57;2.63;;;2.07;;
10987;SDS011;5547;42.672;23.230;2024-03-25T17:36:57;3.08;;;2.17;;
10987;SDS011;5547;42.672;23.230;2024-03-25T17:39:57;2.77;;;1.70;;
10987;SDS011;5547;42.672;23.230;2024-03-25T17:42:57;2.70;;;2.03;;
10987;SDS011;5547;42.672;23.230;2024-03-25T17:45:58;2.15;;;1.90;;
10987;SDS011;5547;42.672;23.230;2024-03-25T17:49:02;2.50;;;2.20;;
10987;SDS011;5547;42.672;23.230;2024-03-25T17:52:02;3.23;;;2.30;;
10987;SDS011;5547;42.672;23.230;2024-03-25T17:55:04;3.10;;;2.33;;
10987;SDS011;5547;42.672;23.230;2024-03-25T17:58:04;3.67;;;2.77;;
10987;SDS011;5547;42.672;23.230;2024-03-25T18:01:04;3.47;;;2.90;;
10987;SDS011;5547;42.672;23.230;2024-03-25T18:04:05;3.27;;;2.67;;
10987;SDS011;5547;42.672;23.230;2024-03-25T18:07:05;3.83;;;2.80;;